Time;durP1;ratioP1;P1;durP2;ratioP2;P2;SDS_P1;SDS_P2;PMS_P1;PMS_P2;Temp;Humidity;BMP_temperature;BMP_pressure;BME280_temperature;BME280_humidity;BME280_pressure;Samples;Min_cycle;Max_cycle;Signal;HPM_P1;HPM_P2
2023/09/16 00:00:13;;;;;;;6.97;6.40;;;;;;;;;;6192410;23;20623;-85
2023/09/16 00:02:43;;;;;;;7.23;6.03;;;;;;;;;;6218917;23;20626;-85
2023/09/16 00:05:12;;;;;;;6.60;6.10;;;;;;;;;;6219501;23;20623;-85
2023/09/16 00:07:40;;;;;;;7.87;6.50;;;;;;;;;;6220899;23;20675;-85
2023/09/16 00:10:09;;;;;;;6.60;6.07;;;;;;;;;;6221236;23;20652;-85
2023/09/16 00:12:37;;;;;;;6.37;5.80;;;;;;;;;;6221243;23;20619;-86
2023/09/16 00:15:06;;;;;;;6.80;6.30;;;;;;;;;;6218558;23;20931;-85
2023/09/16 00:17:36;;;;;;;6.23;5.73;;;;;;;;;;6192702;23;20690;-85
2023/09/16 00:20:14;;;;;;;10.23;6.43;;;;;;;;;;6219988;23;20943;-85
2023/09/16 00:22:43;;;;;;;6.77;6.23;;;;;;;;;;6218108;23;20671;-85
2023/09/16 00:25:12;;;;;;;7.20;6.60;;;;;;;;;;6221595;23;20607;-84
2023/09/16 00:27:40;;;;;;;7.60;7.00;;;;;;;;;;6220153;23;20675;-85
2023/09/16 00:30:09;;;;;;;6.80;6.30;;;;;;;;;;6194365;23;20611;-84
2023/09/16 00:32:37;;;;;;;7.70;7.10;;;;;;;;;;6194801;23;20607;-85
2023/09/16 00:35:09;;;;;;;6.27;5.70;;;;;;;;;;6220135;23;20590;-84
2023/09/16 00:37:38;;;;;;;9.57;7.23;;;;;;;;;;6169419;23;20725;-85
2023/09/16 00:40:07;;;;;;;7.37;6.10;;;;;;;;;;6221807;23;20987;-85
2023/09/16 00:42:37;;;;;;;6.40;5.90;;;;;;;;;;6194500;23;20602;-85
2023/09/16 00:45:07;;;;;;;7.10;6.60;;;;;;;;;;6220118;23;20571;-85
2023/09/16 00:47:35;;;;;;;7.03;6.47;;;;;;;;;;6193994;23;20659;-85
2023/09/16 00:50:06;;;;;;;7.67;6.97;;;;;;;;;;6193536;23;20671;-85
2023/09/16 00:52:37;;;;;;;9.40;7.47;;;;;;;;;;6220303;23;20560;-85
2023/09/16 00:55:06;;;;;;;7.70;6.90;;;;;;;;;;6219695;23;20605;-84
2023/09/16 00:57:35;;;;;;;7.33;6.73;;;;;;;;;;6193590;23;20702;-85
2023/09/16 01:00:08;;;;;;;7.30;6.60;;;;;;;;;;6192385;23;20662;-85
2023/09/16 01:02:36;;;;;;;7.37;6.67;;;;;;;;;;6216865;23;20631;-86
2023/09/16 01:05:08;;;;;;;7.53;6.90;;;;;;;;;;6216906;23;20690;-84
2023/09/16 01:07:39;;;;;;;7.67;6.97;;;;;;;;;;6218924;23;20933;-85
2023/09/16 01:10:08;;;;;;;7.00;6.50;;;;;;;;;;6166149;23;20671;-84
2023/09/16 01:12:36;;;;;;;7.07;6.57;;;;;;;;;;6193130;23;20908;-85
2023/09/16 01:15:05;;;;;;;8.00;7.20;;;;;;;;;;6218847;23;20615;-85
2023/09/16 01:17:36;;;;;;;7.23;6.57;;;;;;;;;;6168042;23;21062;-85
2023/09/16 01:20:08;;;;;;;7.93;7.20;;;;;;;;;;6218821;23;20627;-85
2023/09/16 01:22:40;;;;;;;7.60;6.90;;;;;;;;;;6218987;23;20554;-85
2023/09/16 01:25:10;;;;;;;6.33;5.80;;;;;;;;;;6192619;23;20600;-85
2023/09/16 01:27:41;;;;;;;7.43;6.77;;;;;;;;;;6217479;23;20591;-85
2023/09/16 01:30:10;;;;;;;11.93;6.60;;;;;;;;;;6218084;23;20544;-85
2023/09/16 01:32:41;;;;;;;7.87;7.17;;;;;;;;;;6168239;23;20663;-85
2023/09/16 01:35:12;;;;;;;9.63;7.63;;;;;;;;;;6192201;23;20907;-85
2023/09/16 01:37:41;;;;;;;8.37;7.77;;;;;;;;;;6192143;23;21015;-84
2023/09/16 01:40:12;;;;;;;8.63;7.90;;;;;;;;;;6218378;23;20615;-85
2023/09/16 01:42:41;;;;;;;8.00;7.30;;;;;;;;;;6192562;23;20646;-85
2023/09/16 01:45:11;;;;;;;7.50;6.90;;;;;;;;;;6218312;23;21170;-85
2023/09/16 01:47:39;;;;;;;6.90;6.30;;;;;;;;;;6168265;23;20643;-85
2023/09/16 01:50:08;;;;;;;8.20;6.57;;;;;;;;;;6192491;23;21008;-85
2023/09/16 01:52:38;;;;;;;10.20;6.70;;;;;;;;;;6191971;23;20739;-85
2023/09/16 01:55:07;;;;;;;9.83;6.03;;;;;;;;;;6218835;23;21020;-85
2023/09/16 01:57:37;;;;;;;6.70;6.10;;;;;;;;;;6218058;23;20762;-84
2023/09/16 02:00:06;;;;;;;7.40;6.70;;;;;;;;;;6218681;23;20651;-85
2023/09/16 02:02:41;;;;;;;6.70;6.10;;;;;;;;;;6189807;23;20642;-85
2023/09/16 02:05:10;;;;;;;7.67;6.60;;;;;;;;;;6216571;23;20643;-85
2023/09/16 02:07:39;;;;;;;7.20;6.60;;;;;;;;;;6217604;23;20608;-85
2023/09/16 02:10:09;;;;;;;8.13;7.43;;;;;;;;;;6192156;23;20958;-85
2023/09/16 02:12:39;;;;;;;7.53;6.93;;;;;;;;;;6190151;23;20674;-86
2023/09/16 02:15:09;;;;;;;8.33;6.60;;;;;;;;;;6190340;23;20683;-85
2023/09/16 02:17:38;;;;;;;7.13;6.53;;;;;;;;;;6190967;23;21190;-85
2023/09/16 02:20:09;;;;;;;7.77;7.17;;;;;;;;;;6192370;23;20719;-85
2023/09/16 02:22:38;;;;;;;9.70;7.07;;;;;;;;;;6192037;23;20646;-85
2023/09/16 02:25:06;;;;;;;7.10;6.40;;;;;;;;;;6216531;23;21213;-85
2023/09/16 02:27:35;;;;;;;7.30;6.60;;;;;;;;;;6191211;23;21025;-85
2023/09/16 02:30:06;;;;;;;10.03;7.40;;;;;;;;;;6216526;23;20651;-84
2023/09/16 02:32:35;;;;;;;8.40;7.60;;;;;;;;;;6190973;23;20982;-85
2023/09/16 02:35:03;;;;;;;7.83;7.00;;;;;;;;;;6190754;23;20671;-85
2023/09/16 02:37:32;;;;;;;7.97;7.20;;;;;;;;;;6190196;23;20706;-84
2023/09/16 02:40:01;;;;;;;8.80;8.10;;;;;;;;;;6218199;23;20606;-85
2023/09/16 02:42:29;;;;;;;10.13;7.47;;;;;;;;;;6191595;23;20658;-85
2023/09/16 02:44:58;;;;;;;8.03;7.17;;;;;;;;;;6217861;23;20671;-85
2023/09/16 02:47:28;;;;;;;7.73;6.97;;;;;;;;;;6190743;23;20624;-85
2023/09/16 02:49:57;;;;;;;7.97;7.17;;;;;;;;;;6190992;23;21122;-85
2023/09/16 02:52:25;;;;;;;8.07;7.27;;;;;;;;;;6191401;23;20611;-86
2023/09/16 02:54:54;;;;;;;7.97;7.27;;;;;;;;;;6192538;23;21098;-84
2023/09/16 02:57:23;;;;;;;9.17;8.20;;;;;;;;;;6218884;23;20592;-85
2023/09/16 02:59:52;;;;;;;9.13;8.10;;;;;;;;;;6194713;23;20605;-85
2023/09/16 03:02:20;;;;;;;8.00;7.30;;;;;;;;;;6193053;23;20578;-85
2023/09/16 03:04:50;;;;;;;8.13;7.33;;;;;;;;;;6166301;23;20695;-85
2023/09/16 03:07:18;;;;;;;7.60;7.00;;;;;;;;;;6217694;23;20592;-85
2023/09/16 03:09:47;;;;;;;7.80;7.10;;;;;;;;;;6166874;23;20570;-85
2023/09/16 03:12:15;;;;;;;14.87;7.87;;;;;;;;;;6190996;23;20666;-85
2023/09/16 03:14:43;;;;;;;8.73;7.93;;;;;;;;;;6164376;23;20523;-84
2023/09/16 03:17:11;;;;;;;7.30;6.60;;;;;;;;;;6189716;23;20663;-84
2023/09/16 03:19:39;;;;;;;10.87;8.47;;;;;;;;;;6191162;23;21202;-85
2023/09/16 03:22:09;;;;;;;9.93;9.03;;;;;;;;;;6166625;23;20651;-84
2023/09/16 03:24:39;;;;;;;9.50;8.63;;;;;;;;;;6191153;23;20626;-85
2023/09/16 03:27:07;;;;;;;8.07;7.43;;;;;;;;;;6165784;23;20576;-85
2023/09/16 03:29:36;;;;;;;9.63;7.47;;;;;;;;;;6217296;23;21092;-85
2023/09/16 03:32:06;;;;;;;7.80;7.10;;;;;;;;;;6166751;23;20628;-85
2023/09/16 03:34:35;;;;;;;8.20;7.40;;;;;;;;;;6166709;23;20846;-85
2023/09/16 03:37:04;;;;;;;9.07;8.27;;;;;;;;;;6168566;23;20710;-85
2023/09/16 03:39:33;;;;;;;9.73;8.73;;;;;;;;;;6188236;23;20691;-85
2023/09/16 03:42:02;;;;;;;8.60;7.90;;;;;;;;;;6163558;23;20607;-85
2023/09/16 03:44:30;;;;;;;9.10;8.20;;;;;;;;;;6163653;23;20652;-85
2023/09/16 03:47:09;;;;;;;8.73;8.03;;;;;;;;;;6189768;23;20686;-85
2023/09/16 03:49:39;;;;;;;9.10;8.40;;;;;;;;;;6139623;23;20572;-85
2023/09/16 03:52:07;;;;;;;9.43;8.43;;;;;;;;;;6163762;23;20602;-84
2023/09/16 03:54:37;;;;;;;9.80;8.90;;;;;;;;;;6164592;23;20605;-85
2023/09/16 03:57:06;;;;;;;9.77;8.90;;;;;;;;;;6163679;23;20631;-84
2023/09/16 03:59:34;;;;;;;10.43;9.20;;;;;;;;;;6138696;23;20691;-85
2023/09/16 04:02:03;;;;;;;10.07;9.03;;;;;;;;;;6163347;23;20663;-85
2023/09/16 04:04:32;;;;;;;10.60;9.50;;;;;;;;;;6162433;23;20683;-85
2023/09/16 04:07:00;;;;;;;8.57;7.80;;;;;;;;;;6162821;23;20655;-85
2023/09/16 04:09:29;;;;;;;9.33;8.53;;;;;;;;;;6163304;23;20628;-84
2023/09/16 04:11:58;;;;;;;10.90;9.40;;;;;;;;;;6163333;23;20644;-85
2023/09/16 04:14:28;;;;;;;9.40;8.27;;;;;;;;;;6189762;23;21184;-86
2023/09/16 04:16:57;;;;;;;9.17;8.27;;;;;;;;;;6189945;23;20636;-86
2023/09/16 04:19:25;;;;;;;9.77;8.87;;;;;;;;;;6190119;23;20703;-86
2023/09/16 04:21:54;;;;;;;8.70;8.00;;;;;;;;;;6190974;23;21020;-85
2023/09/16 04:24:23;;;;;;;8.73;8.03;;;;;;;;;;6139890;23;20612;-85
2023/09/16 04:26:51;;;;;;;9.37;8.47;;;;;;;;;;6191719;23;21156;-85
2023/09/16 04:29:21;;;;;;;10.37;8.77;;;;;;;;;;6162305;23;20964;-85
2023/09/16 04:31:51;;;;;;;11.97;8.57;;;;;;;;;;6189487;23;20583;-85
2023/09/16 04:34:19;;;;;;;12.33;8.93;;;;;;;;;;6139039;23;20648;-85
2023/09/16 04:36:48;;;;;;;10.27;9.37;;;;;;;;;;6162582;23;20688;-85
2023/09/16 04:39:21;;;;;;;12.13;9.67;;;;;;;;;;6163375;23;20671;-85
2023/09/16 04:41:53;;;;;;;10.10;9.07;;;;;;;;;;6163079;23;20517;-85
2023/09/16 04:44:23;;;;;;;11.77;10.67;;;;;;;;;;6138330;23;21062;-85
2023/09/16 04:46:53;;;;;;;13.77;9.93;;;;;;;;;;6189363;23;20634;-84
2023/09/16 04:49:22;;;;;;;11.20;10.20;;;;;;;;;;6163094;23;20643;-86
2023/09/16 04:51:50;;;;;;;9.77;8.87;;;;;;;;;;6188649;23;20986;-85
2023/09/16 04:54:19;;;;;;;8.30;7.60;;;;;;;;;;6162758;23;20727;-85
2023/09/16 04:56:47;;;;;;;9.77;8.87;;;;;;;;;;6137059;23;20704;-85
2023/09/16 04:59:15;;;;;;;10.87;9.77;;;;;;;;;;6162530;23;20724;-85
2023/09/16 05:01:45;;;;;;;10.77;9.67;;;;;;;;;;6161311;23;20607;-85
2023/09/16 05:04:16;;;;;;;12.57;11.23;;;;;;;;;;6161452;23;20708;-85
2023/09/16 05:06:44;;;;;;;9.13;8.30;;;;;;;;;;6162689;23;20665;-85
2023/09/16 05:09:13;;;;;;;9.00;8.10;;;;;;;;;;6163210;23;20714;-88
2023/09/16 05:11:43;;;;;;;10.43;9.50;;;;;;;;;;6191429;23;20608;-88
2023/09/16 05:14:11;;;;;;;10.00;9.10;;;;;;;;;;6198411;23;20708;-90
2023/09/16 05:16:40;;;;;;;11.57;10.10;;;;;;;;;;6171219;23;21161;-90
2023/09/16 05:19:12;;;;;;;11.80;10.13;;;;;;;;;;6148086;23;20624;-91
2023/09/16 05:21:40;;;;;;;10.07;9.17;;;;;;;;;;6194183;23;20563;-90
2023/09/16 05:24:09;;;;;;;12.33;11.10;;;;;;;;;;6196417;23;20579;-90
2023/09/16 05:26:38;;;;;;;11.97;10.77;;;;;;;;;;6170729;23;21013;-90
2023/09/16 05:29:07;;;;;;;11.93;10.73;;;;;;;;;;6145835;23;20648;-90
2023/09/16 05:31:39;;;;;;;12.10;11.00;;;;;;;;;;6145329;23;20601;-91
2023/09/16 05:34:08;;;;;;;13.03;11.73;;;;;;;;;;6147136;23;20549;-91
2023/09/16 05:36:38;;;;;;;13.67;12.27;;;;;;;;;;6186722;23;21174;-91
2023/09/16 05:39:07;;;;;;;14.27;11.90;;;;;;;;;;6198192;23;20602;-90
2023/09/16 05:41:36;;;;;;;14.13;12.63;;;;;;;;;;6224247;23;20912;-90
2023/09/16 05:44:04;;;;;;;13.93;12.63;;;;;;;;;;6199341;23;21006;-90
2023/09/16 05:46:37;;;;;;;12.57;11.37;;;;;;;;;;6201521;23;21084;-91
2023/09/16 05:49:09;;;;;;;13.47;11.30;;;;;;;;;;6177726;23;20640;-90
2023/09/16 05:51:42;;;;;;;14.27;11.57;;;;;;;;;;6178918;23;20580;-90
2023/09/16 05:54:12;;;;;;;12.67;11.37;;;;;;;;;;6177996;23;20526;-90
2023/09/16 05:56:46;;;;;;;12.23;11.03;;;;;;;;;;6200204;23;21104;-89
2023/09/16 05:59:16;;;;;;;13.10;11.80;;;;;;;;;;6198543;23;20602;-90
2023/09/16 06:51:57;;;;;;;10.83;9.87;;;;;;;;;;6251952;22;20618;-88
2023/09/16 06:54:25;;;;;;;12.23;9.87;;;;;;;;;;6228271;22;20555;-88
2023/09/16 06:56:54;;;;;;;9.93;9.03;;;;;;;;;;6227806;22;20598;-89
2023/09/16 06:59:23;;;;;;;16.60;10.37;;;;;;;;;;6227576;23;20598;-88
2023/09/16 07:01:59;;;;;;;10.37;9.47;;;;;;;;;;6231920;23;20575;-87
2023/09/16 07:04:27;;;;;;;10.00;9.10;;;;;;;;;;6221280;23;20653;-86
2023/09/16 07:06:57;;;;;;;11.00;9.43;;;;;;;;;;6250130;23;20606;-87
2023/09/16 07:09:26;;;;;;;10.97;9.83;;;;;;;;;;6227662;23;20719;-86
2023/09/16 07:11:54;;;;;;;9.17;8.30;;;;;;;;;;6201031;23;20605;-89
2023/09/16 07:14:23;;;;;;;11.60;9.10;;;;;;;;;;6227974;23;20586;-89
2023/09/16 07:16:52;;;;;;;10.13;9.10;;;;;;;;;;6256679;23;20605;-88
2023/09/16 07:19:23;;;;;;;9.27;8.40;;;;;;;;;;6204642;23;20617;-89
2023/09/16 07:21:52;;;;;;;9.40;8.60;;;;;;;;;;6257471;23;20622;-87
2023/09/16 07:24:22;;;;;;;9.10;8.30;;;;;;;;;;6211043;23;20583;-88
2023/09/16 07:26:52;;;;;;;9.70;8.73;;;;;;;;;;6219513;22;20511;-89
2023/09/16 07:29:23;;;;;;;11.40;9.27;;;;;;;;;;6241581;23;20586;-88
2023/09/16 07:31:54;;;;;;;9.97;9.07;;;;;;;;;;6256683;22;20599;-87
2023/09/16 07:34:25;;;;;;;9.67;8.77;;;;;;;;;;6257799;22;20581;-89
2023/09/16 07:36:55;;;;;;;10.97;8.80;;;;;;;;;;6256939;22;20538;-90
2023/09/16 07:39:25;;;;;;;10.70;9.60;;;;;;;;;;6257723;23;20601;-90
2023/09/16 07:41:57;;;;;;;12.00;10.90;;;;;;;;;;6206688;23;20614;-90
2023/09/16 07:44:26;;;;;;;10.17;9.27;;;;;;;;;;6209655;23;20910;-86
2023/09/16 07:47:05;;;;;;;10.00;9.20;;;;;;;;;;6173465;22;21050;-89
2023/09/16 08:13:33;;;;;;;9.90;9.00;;;;;;;;;;6245260;23;20609;-66
2023/09/16 08:16:01;;;;;;;10.07;9.07;;;;;;;;;;6245005;23;20661;-66
2023/09/16 08:18:29;;;;;;;12.43;8.63;;;;;;;;;;6242543;23;20700;-66
2023/09/16 08:20:58;;;;;;;14.57;9.17;;;;;;;;;;6218593;23;20650;-66
2023/09/16 08:23:26;;;;;;;8.63;7.83;;;;;;;;;;6193531;23;20666;-66
2023/09/16 08:25:54;;;;;;;9.27;8.57;;;;;;;;;;6245933;23;20718;-67
2023/09/16 08:28:22;;;;;;;9.10;8.20;;;;;;;;;;6245201;23;20686;-66
2023/09/16 08:30:52;;;;;;;10.13;8.50;;;;;;;;;;6218826;23;20693;-66
2023/09/16 08:33:20;;;;;;;8.83;7.93;;;;;;;;;;6243449;23;20653;-66
2023/09/16 08:35:49;;;;;;;11.50;9.40;;;;;;;;;;6245184;23;20669;-66
2023/09/16 08:38:17;;;;;;;9.20;8.50;;;;;;;;;;6217659;23;20651;-67
2023/09/16 08:40:45;;;;;;;9.23;8.43;;;;;;;;;;6245185;22;20673;-66
2023/09/16 08:43:17;;;;;;;12.90;9.60;;;;;;;;;;6241693;23;20713;-66
2023/09/16 08:45:48;;;;;;;9.50;8.60;;;;;;;;;;6243302;22;20686;-66
2023/09/16 08:48:22;;;;;;;12.03;9.10;;;;;;;;;;6243288;23;20700;-66
2023/09/16 08:50:53;;;;;;;8.90;8.30;;;;;;;;;;6244245;22;20682;-66
2023/09/16 08:53:21;;;;;;;10.30;8.20;;;;;;;;;;6244636;23;20662;-66
2023/09/16 08:55:52;;;;;;;8.17;7.20;;;;;;;;;;6218123;23;20661;-67
2023/09/16 08:58:20;;;;;;;9.37;7.80;;;;;;;;;;6244886;23;20598;-66
2023/09/16 09:00:48;;;;;;;9.97;8.80;;;;;;;;;;6243135;23;21480;-66
2023/09/16 09:03:18;;;;;;;9.53;8.60;;;;;;;;;;6217230;23;20661;-66
2023/09/16 09:05:46;;;;;;;7.77;7.17;;;;;;;;;;6216269;23;20970;-66
2023/09/16 09:08:14;;;;;;;9.43;8.50;;;;;;;;;;6244423;23;20665;-66
2023/09/16 09:10:43;;;;;;;8.80;7.77;;;;;;;;;;6243203;23;21066;-66
2023/09/16 09:13:13;;;;;;;8.63;7.83;;;;;;;;;;6243440;22;20694;-66
2023/09/16 09:15:41;;;;;;;8.67;7.87;;;;;;;;;;6242545;23;20634;-66
2023/09/16 09:18:12;;;;;;;8.57;7.67;;;;;;;;;;6242677;23;20674;-67
2023/09/16 09:20:42;;;;;;;9.63;7.93;;;;;;;;;;6274681;22;20621;-67
2023/09/16 09:23:10;;;;;;;8.30;7.70;;;;;;;;;;6248296;22;20716;-65
2023/09/16 09:25:41;;;;;;;10.10;7.50;;;;;;;;;;6274269;22;21159;-65
2023/09/16 09:28:10;;;;;;;8.40;7.70;;;;;;;;;;6274271;22;20621;-67
2023/09/16 09:30:39;;;;;;;8.73;7.90;;;;;;;;;;6274647;22;20696;-66
2023/09/16 09:33:13;;;;;;;8.10;7.40;;;;;;;;;;6274362;22;20657;-66
2023/09/16 09:35:43;;;;;;;8.03;7.33;;;;;;;;;;6274443;22;20683;-66
2023/09/16 09:38:11;;;;;;;8.97;8.10;;;;;;;;;;6275277;22;20644;-66
2023/09/16 09:40:40;;;;;;;9.27;8.47;;;;;;;;;;6274872;22;20665;-66
2023/09/16 09:43:08;;;;;;;8.80;8.20;;;;;;;;;;6248209;22;20660;-67
2023/09/16 09:45:38;;;;;;;7.80;7.20;;;;;;;;;;6274681;22;20586;-67
2023/09/16 09:48:06;;;;;;;8.63;7.63;;;;;;;;;;6274594;22;21187;-66
2023/09/16 09:50:35;;;;;;;7.33;6.83;;;;;;;;;;6274781;22;20743;-66
2023/09/16 09:53:06;;;;;;;8.90;7.80;;;;;;;;;;6274673;22;20670;-67
2023/09/16 09:55:34;;;;;;;8.10;7.50;;;;;;;;;;6274692;22;20621;-66
2023/09/16 09:58:02;;;;;;;8.03;7.23;;;;;;;;;;6274918;22;20652;-66
2023/09/16 10:00:31;;;;;;;8.13;7.43;;;;;;;;;;6274862;22;21048;-66
2023/09/16 10:03:01;;;;;;;8.17;7.50;;;;;;;;;;6274041;22;20680;-67
2023/09/16 10:05:29;;;;;;;8.37;7.60;;;;;;;;;;6273417;22;20715;-66
2023/09/16 10:07:57;;;;;;;9.40;8.53;;;;;;;;;;6246546;22;20656;-67
2023/09/16 10:10:27;;;;;;;8.10;7.50;;;;;;;;;;6274573;22;21032;-66
2023/09/16 10:12:56;;;;;;;8.40;7.80;;;;;;;;;;6275394;22;20720;-66
2023/09/16 10:15:24;;;;;;;7.97;7.17;;;;;;;;;;6247696;22;20650;-66
2023/09/16 10:17:53;;;;;;;7.93;7.33;;;;;;;;;;6276027;22;20656;-66
2023/09/16 10:20:22;;;;;;;8.53;7.77;;;;;;;;;;6274440;22;20661;-66
2023/09/16 10:22:52;;;;;;;7.60;7.10;;;;;;;;;;6276185;22;20649;-66
2023/09/16 10:25:20;;;;;;;9.00;8.20;;;;;;;;;;6246765;22;20653;-66
2023/09/16 10:27:53;;;;;;;7.73;7.23;;;;;;;;;;6275552;22;20648;-66
2023/09/16 10:30:22;;;;;;;9.37;8.50;;;;;;;;;;6246485;22;20684;-66
2023/09/16 10:32:51;;;;;;;9.27;7.97;;;;;;;;;;6273598;22;20941;-66
2023/09/16 10:35:20;;;;;;;8.30;7.80;;;;;;;;;;6246791;22;20958;-66
2023/09/16 10:37:49;;;;;;;9.23;8.50;;;;;;;;;;6273236;22;20695;-67
2023/09/16 10:40:18;;;;;;;12.70;8.87;;;;;;;;;;6273314;22;20894;-65
2023/09/16 10:42:46;;;;;;;8.67;8.17;;;;;;;;;;6273746;22;20657;-66
2023/09/16 10:45:17;;;;;;;7.67;7.07;;;;;;;;;;6246234;22;20677;-66
2023/09/16 10:47:47;;;;;;;8.10;7.60;;;;;;;;;;6247903;22;20972;-67
2023/09/16 10:50:15;;;;;;;9.27;8.47;;;;;;;;;;6274149;22;21166;-67
2023/09/16 10:52:46;;;;;;;8.70;7.93;;;;;;;;;;6274878;22;20665;-67
2023/09/16 10:55:17;;;;;;;7.87;7.37;;;;;;;;;;6274924;22;20590;-67
2023/09/16 10:57:49;;;;;;;8.20;7.50;;;;;;;;;;6274953;22;20546;-67
2023/09/16 11:00:22;;;;;;;9.40;8.70;;;;;;;;;;6248046;22;20636;-67
2023/09/16 11:02:54;;;;;;;8.50;7.80;;;;;;;;;;6274104;22;20624;-67
2023/09/16 11:05:22;;;;;;;11.50;10.47;;;;;;;;;;6273183;22;20593;-67
2023/09/16 11:07:51;;;;;;;9.83;8.77;;;;;;;;;;6248113;22;20661;-67
2023/09/16 11:10:19;;;;;;;11.97;10.27;;;;;;;;;;6274971;22;20649;-67
2023/09/16 11:12:48;;;;;;;10.03;9.40;;;;;;;;;;6273884;22;20712;-67
2023/09/16 11:15:17;;;;;;;9.80;9.07;;;;;;;;;;6248853;22;20648;-67
2023/09/16 11:17:47;;;;;;;9.37;8.80;;;;;;;;;;6275078;22;20700;-67
2023/09/16 11:20:21;;;;;;;9.40;8.80;;;;;;;;;;6247929;22;21180;-67
2023/09/16 11:22:50;;;;;;;9.53;9.03;;;;;;;;;;6248459;22;20614;-66
2023/09/16 11:25:19;;;;;;;11.10;10.10;;;;;;;;;;6274492;22;20652;-67
2023/09/16 11:27:47;;;;;;;17.77;16.50;;;;;;;;;;6273266;22;20708;-67
2023/09/16 11:30:16;;;;;;;141.97;128.63;;;;;;;;;;6274444;22;20656;-67
2023/09/16 11:33:08;;;;;;;25.37;23.33;;;;;;;;;;6274257;22;21047;-67
2023/09/16 11:35:38;;;;;;;11.73;10.90;;;;;;;;;;6274349;22;20962;-67
2023/09/16 11:38:06;;;;;;;10.97;10.27;;;;;;;;;;6273797;22;20621;-67
2023/09/16 11:40:35;;;;;;;10.73;10.13;;;;;;;;;;6272542;22;21022;-66
2023/09/16 11:43:04;;;;;;;12.20;11.50;;;;;;;;;;6273986;22;21322;-68
2023/09/16 11:45:33;;;;;;;12.83;11.93;;;;;;;;;;6275262;22;20656;-67
2023/09/16 11:48:04;;;;;;;14.90;13.90;;;;;;;;;;6246635;22;20653;-67
2023/09/16 11:50:32;;;;;;;15.30;14.20;;;;;;;;;;6221555;22;20542;-67
2023/09/16 11:53:01;;;;;;;18.90;17.50;;;;;;;;;;6246973;22;20662;-68
2023/09/16 11:55:29;;;;;;;14.60;13.30;;;;;;;;;;6274284;22;20666;-66
2023/09/16 11:57:57;;;;;;;11.93;11.10;;;;;;;;;;6273035;22;20669;-67
2023/09/16 12:00:26;;;;;;;10.13;9.63;;;;;;;;;;6246772;22;20656;-67
2023/09/16 12:02:54;;;;;;;25.90;24.07;;;;;;;;;;6274341;22;20728;-66
2023/09/16 12:05:25;;;;;;;11.57;10.77;;;;;;;;;;6248258;22;20660;-67
2023/09/16 12:07:54;;;;;;;92.23;84.10;;;;;;;;;;6276273;22;20699;-66
2023/09/16 12:10:23;;;;;;;219.50;201.30;;;;;;;;;;6275349;22;20649;-66
2023/09/16 12:12:52;;;;;;;131.03;119.47;;;;;;;;;;6249302;22;20669;-67
2023/09/16 12:15:20;;;;;;;9.90;9.20;;;;;;;;;;6275873;22;20660;-68
2023/09/16 12:17:48;;;;;;;10.37;9.77;;;;;;;;;;6276227;22;20707;-68
2023/09/16 12:20:17;;;;;;;32.73;29.87;;;;;;;;;;6248658;22;20673;-67
2023/09/16 12:22:48;;;;;;;23.43;21.53;;;;;;;;;;6275561;22;20692;-67
2023/09/16 12:25:17;;;;;;;1115.00;925.20;;;;;;;;;;6275436;22;20624;-67
2023/09/16 12:27:46;;;;;;;14.00;12.97;;;;;;;;;;6274737;22;20686;-67
2023/09/16 12:30:15;;;;;;;10.20;9.60;;;;;;;;;;6247838;22;20657;-66
2023/09/16 12:32:51;;;;;;;285.87;257.80;;;;;;;;;;6276138;22;20576;-67
2023/09/16 12:35:19;;;;;;;10.70;10.10;;;;;;;;;;6248505;22;20613;-67
2023/09/16 12:37:49;;;;;;;12.50;11.60;;;;;;;;;;6275785;22;20649;-66
2023/09/16 12:40:18;;;;;;;11.37;10.70;;;;;;;;;;6276262;22;20656;-67
2023/09/16 12:42:46;;;;;;;9.53;8.93;;;;;;;;;;6273497;22;20704;-65
2023/09/16 12:45:15;;;;;;;11.80;11.10;;;;;;;;;;6276205;22;20577;-67
2023/09/16 12:47:43;;;;;;;9.83;9.27;;;;;;;;;;6274549;22;21279;-66
2023/09/16 12:50:11;;;;;;;9.63;9.13;;;;;;;;;;6223772;22;20963;-66
2023/09/16 12:52:40;;;;;;;9.60;8.90;;;;;;;;;;6275623;22;20664;-66
2023/09/16 12:55:13;;;;;;;9.73;9.13;;;;;;;;;;6276324;22;20648;-67
2023/09/16 12:57:44;;;;;;;10.23;9.70;;;;;;;;;;6276109;22;20697;-66
2023/09/16 13:00:15;;;;;;;9.43;8.93;;;;;;;;;;6276040;22;20628;-66
2023/09/16 13:02:43;;;;;;;8.80;8.40;;;;;;;;;;6247714;22;21001;-66
2023/09/16 13:05:12;;;;;;;9.30;8.90;;;;;;;;;;6275332;22;20656;-66
2023/09/16 13:07:41;;;;;;;9.97;9.27;;;;;;;;;;6276019;22;20657;-66
2023/09/16 13:10:09;;;;;;;10.27;9.37;;;;;;;;;;6276255;22;20962;-66
2023/09/16 13:12:39;;;;;;;8.90;8.50;;;;;;;;;;6273116;22;20689;-66
2023/09/16 13:15:13;;;;;;;9.20;8.80;;;;;;;;;;6274653;22;20641;-66
2023/09/16 13:17:42;;;;;;;9.33;8.93;;;;;;;;;;6274046;22;20625;-66
2023/09/16 13:20:14;;;;;;;9.40;8.80;;;;;;;;;;6274841;22;20657;-66
2023/09/16 13:22:42;;;;;;;8.70;8.30;;;;;;;;;;6247072;22;20665;-66
2023/09/16 13:25:30;;;;;;;8.80;8.40;;;;;;;;;;6275046;22;21010;-66
2023/09/16 13:28:07;;;;;;;9.73;8.80;;;;;;;;;;6273850;22;20549;-67
2023/09/16 13:30:36;;;;;;;8.30;8.00;;;;;;;;;;6274905;22;20537;-67
2023/09/16 13:33:05;;;;;;;7.70;7.40;;;;;;;;;;6274780;22;20657;-66
2023/09/16 13:35:35;;;;;;;8.63;8.00;;;;;;;;;;6274544;22;20641;-67
2023/09/16 13:38:07;;;;;;;8.13;7.77;;;;;;;;;;6274283;22;20684;-66
2023/09/16 13:40:35;;;;;;;8.53;8.13;;;;;;;;;;6274147;22;20668;-66
2023/09/16 13:43:04;;;;;;;8.37;8.00;;;;;;;;;;6246230;22;20740;-66
2023/09/16 13:45:35;;;;;;;7.90;7.60;;;;;;;;;;6247801;22;20937;-66
2023/09/16 13:48:10;;;;;;;8.23;7.83;;;;;;;;;;6247109;22;21010;-67
2023/09/16 13:50:40;;;;;;;8.90;8.30;;;;;;;;;;6274264;22;20667;-66
2023/09/16 13:53:08;;;;;;;7.90;7.50;;;;;;;;;;6273553;22;20634;-66
2023/09/16 13:55:36;;;;;;;8.13;7.40;;;;;;;;;;6274573;22;20660;-66
2023/09/16 13:58:05;;;;;;;7.63;7.20;;;;;;;;;;6274194;22;21151;-66
2023/09/16 14:00:36;;;;;;;8.60;8.20;;;;;;;;;;6272263;22;21220;-66
2023/09/16 14:03:05;;;;;;;8.00;7.70;;;;;;;;;;6273093;22;20688;-66
2023/09/16 14:05:33;;;;;;;7.53;7.20;;;;;;;;;;6272430;22;20598;-66
2023/09/16 14:08:01;;;;;;;8.10;7.60;;;;;;;;;;6274804;22;20989;-66
2023/09/16 14:10:30;;;;;;;7.97;7.57;;;;;;;;;;6273173;22;20657;-66
2023/09/16 14:12:59;;;;;;;7.90;7.50;;;;;;;;;;6226728;22;1118975;-66
2023/09/16 14:15:28;;;;;;;8.20;7.63;;;;;;;;;;6273818;22;20729;-66
2023/09/16 14:18:00;;;;;;;8.37;7.60;;;;;;;;;;6275623;22;20656;-66
2023/09/16 14:20:29;;;;;;;8.07;7.53;;;;;;;;;;6273823;22;20625;-66
2023/09/16 14:22:58;;;;;;;8.73;7.90;;;;;;;;;;6275255;22;20693;-66
2023/09/16 14:25:27;;;;;;;8.27;7.87;;;;;;;;;;6247164;22;20660;-66
2023/09/16 14:27:55;;;;;;;8.67;8.17;;;;;;;;;;6275337;22;20685;-67
2023/09/16 14:30:24;;;;;;;8.90;8.20;;;;;;;;;;6274878;22;20676;-66
2023/09/16 14:32:52;;;;;;;8.30;7.90;;;;;;;;;;6275944;22;20897;-67
2023/09/16 14:35:22;;;;;;;8.27;7.87;;;;;;;;;;6274998;22;20645;-65
2023/09/16 14:37:53;;;;;;;7.80;7.30;;;;;;;;;;6275781;22;21004;-66
2023/09/16 14:40:22;;;;;;;8.03;7.63;;;;;;;;;;6248076;22;20653;-66
2023/09/16 14:42:50;;;;;;;7.83;7.10;;;;;;;;;;6275203;22;20728;-66
2023/09/16 14:45:19;;;;;;;8.00;7.43;;;;;;;;;;6274236;22;20630;-66
2023/09/16 14:47:47;;;;;;;8.70;8.20;;;;;;;;;;6275508;22;20629;-66
2023/09/16 14:50:16;;;;;;;8.00;7.50;;;;;;;;;;6275018;22;20693;-66
2023/09/16 14:52:46;;;;;;;8.47;7.87;;;;;;;;;;6248389;22;20721;-66
2023/09/16 14:55:17;;;;;;;9.47;8.50;;;;;;;;;;6274992;22;20653;-66
2023/09/16 14:57:45;;;;;;;8.30;7.90;;;;;;;;;;6273937;22;20652;-66
2023/09/16 15:00:13;;;;;;;8.60;8.00;;;;;;;;;;6247684;22;20585;-66
2023/09/16 15:02:43;;;;;;;8.90;8.40;;;;;;;;;;6273213;22;20712;-66
2023/09/16 15:05:11;;;;;;;7.60;7.30;;;;;;;;;;6273882;22;20649;-66
2023/09/16 15:07:40;;;;;;;9.30;8.70;;;;;;;;;;6250145;22;20641;-67
2023/09/16 15:10:10;;;;;;;8.30;7.90;;;;;;;;;;6274009;22;20989;-66
2023/09/16 15:12:38;;;;;;;8.00;7.60;;;;;;;;;;6282772;22;20617;-67
2023/09/16 15:15:09;;;;;;;7.97;7.57;;;;;;;;;;6295250;22;20644;-66
2023/09/16 15:17:37;;;;;;;7.83;7.43;;;;;;;;;;6287578;22;20574;-66
2023/09/16 15:20:05;;;;;;;8.63;7.80;;;;;;;;;;6281777;22;20634;-67
2023/09/16 15:22:34;;;;;;;7.37;6.90;;;;;;;;;;6289130;22;20578;-67
2023/09/16 15:25:02;;;;;;;8.17;7.50;;;;;;;;;;6289238;22;20574;-67
2023/09/16 15:27:32;;;;;;;7.80;7.20;;;;;;;;;;6289015;22;20598;-67
2023/09/16 15:30:00;;;;;;;7.93;7.60;;;;;;;;;;6290209;22;20565;-67
2023/09/16 15:32:28;;;;;;;8.33;7.73;;;;;;;;;;6289183;22;20594;-67
2023/09/16 15:34:57;;;;;;;7.90;7.50;;;;;;;;;;6262683;22;21172;-67
2023/09/16 15:37:25;;;;;;;8.10;7.70;;;;;;;;;;6291879;22;20597;-67
2023/09/16 15:39:54;;;;;;;7.60;7.30;;;;;;;;;;6261322;22;20581;-67
2023/09/16 15:42:25;;;;;;;8.10;7.70;;;;;;;;;;6286813;22;20950;-67
2023/09/16 15:44:55;;;;;;;9.17;8.57;;;;;;;;;;6259859;22;20617;-67
2023/09/16 15:47:23;;;;;;;8.13;7.73;;;;;;;;;;6294988;22;20576;-66
2023/09/16 15:49:52;;;;;;;8.60;8.07;;;;;;;;;;6295340;22;20673;-66
2023/09/16 15:52:20;;;;;;;8.90;8.20;;;;;;;;;;6296597;22;20565;-67
2023/09/16 15:54:49;;;;;;;8.10;7.70;;;;;;;;;;6295433;22;20562;-66
2023/09/16 15:57:17;;;;;;;8.77;8.27;;;;;;;;;;6294260;22;20573;-66
2023/09/16 15:59:45;;;;;;;8.80;8.33;;;;;;;;;;6293471;22;20581;-66
2023/09/16 16:02:15;;;;;;;12.53;8.20;;;;;;;;;;6266132;22;20577;-66